Terminal Aerodrome Forecast
Issued by NWS

Home | Current Version | Previous Version | Text Only | Print | Product List | Glossary On
Versions: 1 2 3 4 5 6 7 8 9 10 11 12 13 14 15 16 17 18 19 20
000
FTUS41 KBTV 271725
TAFMPV
TAF
KMPV 271725Z 2718/2818 32006KT P6SM SCT020 OVC050
      TEMPO 2718/2722 5SM -SN BR BKN015
     FM280000 35008KT P6SM OVC035
     FM281000 35010G20KT P6SM BKN045=

USA.gov is the U.S. government's official web portal to all federal, state and local government web resources and services.